createdAt,value
2018-09-04T00:01:28.924Z,83.40
2018-09-04T00:03:57.524Z,88.03
2018-09-04T00:06:26.137Z,115.67
2018-09-04T00:08:54.786Z,139.03
2018-09-04T00:11:23.471Z,125.40
2018-09-04T00:13:52.084Z,125.23
2018-09-04T00:16:20.762Z,95.53
2018-09-04T00:18:49.341Z,93.30
2018-09-04T00:21:18.002Z,83.93
2018-09-04T00:23:46.630Z,83.17
2018-09-04T00:26:15.216Z,90.37
2018-09-04T00:28:43.870Z,82.93
2018-09-04T00:31:12.492Z,94.53
2018-09-04T00:33:41.087Z,77.33
2018-09-04T00:36:09.845Z,76.13
2018-09-04T00:38:38.457Z,78.10
2018-09-04T00:41:07.239Z,76.63
2018-09-04T00:43:35.833Z,69.63
2018-09-04T00:46:04.493Z,74.47
2018-09-04T00:48:33.143Z,70.50
2018-09-04T00:51:01.827Z,72.53
2018-09-04T00:53:30.501Z,74.77
2018-09-04T00:55:59.083Z,66.57
2018-09-04T00:58:27.666Z,72.87
2018-09-04T01:00:56.329Z,69.07
2018-09-04T01:03:26.199Z,74.83
2018-09-04T01:05:54.847Z,75.83
2018-09-04T01:08:23.510Z,71.77
2018-09-04T01:10:52.115Z,74.87
2018-09-04T01:13:20.811Z,68.70
2018-09-04T01:15:49.477Z,74.10
2018-09-04T01:18:18.076Z,71.93
2018-09-04T01:20:46.666Z,68.47
2018-09-04T01:23:15.231Z,67.10
2018-09-04T01:25:43.872Z,64.43
2018-09-04T01:28:12.482Z,66.27
2018-09-04T01:30:41.122Z,65.37
2018-09-04T01:33:09.752Z,64.23
2018-09-04T01:35:38.400Z,66.97
2018-09-04T01:38:07.034Z,64.43
2018-09-04T01:40:35.650Z,65.10
2018-09-04T01:43:04.243Z,65.17
2018-09-04T01:45:32.870Z,67.50
2018-09-04T01:48:01.430Z,74.50
2018-09-04T01:50:30.028Z,78.00
2018-09-04T01:52:58.710Z,73.27
2018-09-04T01:55:27.257Z,77.47
2018-09-04T01:57:55.872Z,80.03
2018-09-04T02:00:24.479Z,77.43
2018-09-04T02:02:53.069Z,68.93
2018-09-04T02:05:21.679Z,62.73
2018-09-04T02:07:50.273Z,66.57
2018-09-04T02:10:18.891Z,63.87
2018-09-04T02:12:47.513Z,61.80
2018-09-04T02:15:16.202Z,64.70
2018-09-04T02:17:44.782Z,57.07
2018-09-04T02:20:13.392Z,58.53
2018-09-04T02:22:41.984Z,58.07
2018-09-04T02:25:10.610Z,57.20
2018-09-04T02:27:39.318Z,57.70
2018-09-04T02:30:07.986Z,56.00
2018-09-04T02:32:36.540Z,57.17
2018-09-04T02:35:05.312Z,61.63
2018-09-04T02:37:33.929Z,57.87
2018-09-04T02:40:02.493Z,59.67
2018-09-04T02:42:31.101Z,54.10
2018-09-04T02:44:59.735Z,55.30
2018-09-04T02:47:28.357Z,56.33
2018-09-04T02:49:56.937Z,52.77
2018-09-04T02:52:25.533Z,49.77
2018-09-04T02:54:54.152Z,55.80
2018-09-04T02:57:22.738Z,51.80
2018-09-04T02:59:51.346Z,49.67
2018-09-04T03:02:19.937Z,60.93
2018-09-04T03:04:48.558Z,58.63
2018-09-04T03:07:17.118Z,65.23
2018-09-04T03:09:45.669Z,80.80
2018-09-04T03:12:14.233Z,88.83
2018-09-04T03:14:42.846Z,95.27
2018-09-04T03:17:11.398Z,72.73
2018-09-04T03:19:40.042Z,78.23
2018-09-04T03:22:08.608Z,93.33
2018-09-04T03:24:37.204Z,75.20
2018-09-04T03:27:05.806Z,74.17
2018-09-04T03:29:34.355Z,75.50
2018-09-04T03:32:02.993Z,84.90
2018-09-04T03:34:31.629Z,91.30
2018-09-04T03:37:00.277Z,84.80
2018-09-04T03:39:28.893Z,107.83
2018-09-04T03:41:57.519Z,110.27
2018-09-04T03:44:26.255Z,106.40
2018-09-04T03:46:54.759Z,176.63
2018-09-04T03:49:23.444Z,138.60
2018-09-04T03:51:52.094Z,259.20
2018-09-04T03:54:20.785Z,177.07
2018-09-04T03:56:49.360Z,140.87
2018-09-04T03:59:17.918Z,90.10
2018-09-04T04:01:46.546Z,241.83
2018-09-04T04:04:15.190Z,265.90
2018-09-04T04:06:43.892Z,276.63
2018-09-04T04:09:12.653Z,289.13
2018-09-04T04:11:41.301Z,327.87
2018-09-04T04:14:10.069Z,248.17
2018-09-04T04:16:38.703Z,342.60
2018-09-04T04:19:07.353Z,265.50
2018-09-04T04:21:35.937Z,364.50
2018-09-04T04:24:04.631Z,399.63
2018-09-04T04:26:33.309Z,364.30
2018-09-04T04:29:02.068Z,306.13
2018-09-04T04:31:30.755Z,344.37
2018-09-04T04:33:59.395Z,345.00
2018-09-04T04:36:27.951Z,367.63
2018-09-04T04:38:56.632Z,287.57
2018-09-04T04:41:25.350Z,228.10
2018-09-04T04:43:53.998Z,226.10
2018-09-04T04:46:22.668Z,275.43
2018-09-04T04:48:51.320Z,188.93
2018-09-04T04:51:19.982Z,233.33
2018-09-04T04:53:48.619Z,249.17
2018-09-04T04:56:17.209Z,151.90
2018-09-04T04:58:45.822Z,201.83
2018-09-04T05:01:14.623Z,197.90
2018-09-04T05:03:43.291Z,217.10
2018-09-04T05:06:11.849Z,224.80
2018-09-04T05:08:40.435Z,189.43
2018-09-04T05:11:09.130Z,334.00
2018-09-04T05:13:37.751Z,247.17
2018-09-04T05:16:06.523Z,195.33
2018-09-04T05:18:35.124Z,267.40
2018-09-04T05:21:03.807Z,250.43
2018-09-04T05:23:32.402Z,218.20
2018-09-04T05:26:01.074Z,297.07
2018-09-04T05:28:29.647Z,231.50
2018-09-04T05:30:58.353Z,268.37
2018-09-04T05:33:44.672Z,208.93
2018-09-04T05:36:13.990Z,362.00
2018-09-04T05:38:42.596Z,282.30
2018-09-04T05:41:11.354Z,287.20
2018-09-04T05:43:45.081Z,197.67
2018-09-04T05:46:17.417Z,277.43
2018-09-04T05:48:46.104Z,293.93
2018-09-04T05:51:14.765Z,261.50
2018-09-04T05:53:43.465Z,175.47
2018-09-04T05:56:12.115Z,215.23
2018-09-04T05:58:40.783Z,210.23
2018-09-04T06:01:09.485Z,220.17
2018-09-04T06:03:38.053Z,223.97
2018-09-04T06:06:06.739Z,292.73
2018-09-04T06:08:35.341Z,189.63
2018-09-04T06:11:04.209Z,160.27
2018-09-04T06:13:32.949Z,144.80
2018-09-04T06:16:01.663Z,172.30
2018-09-04T06:18:30.316Z,163.80
2018-09-04T06:20:58.950Z,180.47
2018-09-04T06:23:27.654Z,173.07
2018-09-04T06:25:56.356Z,163.23
2018-09-04T06:28:25.051Z,142.83
2018-09-04T06:30:53.709Z,154.90
2018-09-04T06:33:22.382Z,213.17
2018-09-04T06:35:51.011Z,258.60
2018-09-04T06:38:19.585Z,166.53
2018-09-04T06:40:48.263Z,176.93
2018-09-04T06:43:16.983Z,147.00
2018-09-04T06:45:45.601Z,145.00
2018-09-04T06:48:14.246Z,162.57
2018-09-04T06:50:43.375Z,157.20
2018-09-04T06:53:11.989Z,151.50
2018-09-04T06:55:40.652Z,139.27
2018-09-04T06:58:09.262Z,134.47
2018-09-04T07:00:37.854Z,142.87
2018-09-04T07:03:06.543Z,140.40
2018-09-04T07:05:35.161Z,139.53
2018-09-04T07:08:03.780Z,142.97
2018-09-04T07:10:32.360Z,122.67
2018-09-04T07:13:01.022Z,143.23
2018-09-04T07:15:29.618Z,145.87
2018-09-04T07:17:58.401Z,130.83
2018-09-04T07:20:27.140Z,131.90
2018-09-04T07:22:55.817Z,135.60
2018-09-04T07:25:24.415Z,110.17
2018-09-04T07:27:53.005Z,122.37
2018-09-04T07:30:21.749Z,118.90
2018-09-04T07:32:50.434Z,119.77
2018-09-04T07:35:19.144Z,117.67
2018-09-04T07:37:47.791Z,116.60
2018-09-04T07:40:16.646Z,113.20
2018-09-04T07:42:45.223Z,114.73
2018-09-04T07:45:13.883Z,105.93
2018-09-04T07:47:42.516Z,104.30
2018-09-04T07:50:11.544Z,105.17
2018-09-04T07:52:40.152Z,105.73
2018-09-04T07:55:09.112Z,104.20
2018-09-04T07:57:37.807Z,107.00
2018-09-04T08:00:07.393Z,105.07
2018-09-04T08:02:36.013Z,99.07
2018-09-04T08:05:05.335Z,93.87
2018-09-04T08:07:34.088Z,105.13
2018-09-04T08:10:02.818Z,99.17
2018-09-04T08:12:31.431Z,98.40
2018-09-04T08:15:00.169Z,102.10
2018-09-04T08:17:28.908Z,99.37
2018-09-04T08:19:57.677Z,93.27
2018-09-04T08:22:26.356Z,97.60
2018-09-04T08:24:55.026Z,93.27
2018-09-04T08:27:23.681Z,96.90
2018-09-04T08:29:52.292Z,90.77
2018-09-04T08:32:20.949Z,93.27
2018-09-04T08:34:49.540Z,88.00
2018-09-04T08:37:18.218Z,90.57
2018-09-04T08:39:46.838Z,92.63
2018-09-04T08:42:15.523Z,90.60
2018-09-04T08:44:44.213Z,82.83
2018-09-04T08:47:12.914Z,80.80
2018-09-04T08:49:41.537Z,82.57
2018-09-04T08:52:10.215Z,79.13
2018-09-04T08:54:38.979Z,79.70
2018-09-04T08:57:07.683Z,78.50
2018-09-04T08:59:36.422Z,76.57
2018-09-04T09:02:05.375Z,76.67
2018-09-04T09:04:34.096Z,71.53
2018-09-04T09:07:02.677Z,73.10
2018-09-04T09:09:31.326Z,69.77
2018-09-04T09:11:59.950Z,68.93
2018-09-04T09:14:28.586Z,69.17
2018-09-04T09:16:57.232Z,69.23
2018-09-04T09:19:25.816Z,65.73
2018-09-04T09:21:54.379Z,66.87
2018-09-04T09:24:23.061Z,67.33
2018-09-04T09:26:51.664Z,68.83
2018-09-04T09:29:20.234Z,60.50
2018-09-04T09:31:48.781Z,62.20
2018-09-04T09:34:17.365Z,63.60
2018-09-04T09:36:46.113Z,59.93
2018-09-04T09:39:14.621Z,61.10
2018-09-04T09:41:43.223Z,59.00
2018-09-04T09:44:11.823Z,61.87
2018-09-04T09:46:40.392Z,59.83
2018-09-04T09:49:09.040Z,60.90
2018-09-04T09:51:37.662Z,61.57
2018-09-04T09:54:06.498Z,63.60
2018-09-04T09:56:35.083Z,64.90
2018-09-04T09:59:03.766Z,64.63
2018-09-04T10:01:36.530Z,62.63
2018-09-04T10:04:06.830Z,59.80
2018-09-04T10:06:35.355Z,57.93
2018-09-04T10:09:05.069Z,53.50
2018-09-04T10:11:33.712Z,54.80
2018-09-04T10:14:06.052Z,57.60
2018-09-04T10:16:39.034Z,57.37
2018-09-04T10:19:07.975Z,55.23
2018-09-04T10:21:36.562Z,59.73
2018-09-04T10:24:05.224Z,57.73
2018-09-04T10:26:33.939Z,59.80
2018-09-04T10:29:02.494Z,58.80
2018-09-04T10:31:31.133Z,58.90
2018-09-04T10:33:59.807Z,60.57
2018-09-04T10:36:28.488Z,62.53
2018-09-04T10:39:02.414Z,61.17
2018-09-04T10:41:31.252Z,55.37
2018-09-04T10:43:59.975Z,56.87
2018-09-04T10:46:28.666Z,59.00
2018-09-04T10:48:57.464Z,54.60
2018-09-04T10:51:26.278Z,56.33
2018-09-04T10:53:55.714Z,56.30
2018-09-04T10:56:24.463Z,53.80
2018-09-04T10:58:53.227Z,51.70
2018-09-04T11:01:22.019Z,56.63
2018-09-04T11:03:50.726Z,54.83
2018-09-04T11:06:19.413Z,50.27
2018-09-04T11:08:48.120Z,49.60
2018-09-04T11:11:16.943Z,50.93
2018-09-04T11:13:45.663Z,49.27
2018-09-04T11:16:14.497Z,49.13
2018-09-04T11:18:43.903Z,48.73
2018-09-04T11:21:12.650Z,49.97
2018-09-04T11:23:41.409Z,50.33
2018-09-04T11:26:10.130Z,50.33
2018-09-04T11:28:42.486Z,49.27
2018-09-04T11:31:11.145Z,48.83
2018-09-04T11:33:39.927Z,46.33
2018-09-04T11:36:08.731Z,43.40
2018-09-04T11:38:37.390Z,45.27
2018-09-04T11:41:06.133Z,43.93
2018-09-04T11:43:36.476Z,45.10
2018-09-04T11:46:06.072Z,45.67
2018-09-04T11:48:39.709Z,47.53
2018-09-04T11:51:10.578Z,44.23
2018-09-04T11:53:39.652Z,43.63
2018-09-04T11:56:08.395Z,42.00
2018-09-04T11:58:37.171Z,43.07
2018-09-04T12:01:10.592Z,43.27
2018-09-04T12:03:39.494Z,40.93
2018-09-04T12:06:08.272Z,39.07
2018-09-04T12:08:36.892Z,41.97
2018-09-04T12:11:05.589Z,42.03
2018-09-04T12:13:34.252Z,40.97
2018-09-04T12:16:03.478Z,40.77
2018-09-04T12:18:32.167Z,41.90
2018-09-04T12:21:02.396Z,39.07
2018-09-04T12:23:31.017Z,37.77
2018-09-04T12:26:01.025Z,38.63
2018-09-04T12:28:29.701Z,38.80
2018-09-04T12:30:58.959Z,37.03
2018-09-04T12:33:27.873Z,40.10
2018-09-04T12:35:56.573Z,38.77
2018-09-04T12:38:27.018Z,38.20
2018-09-04T12:40:55.777Z,35.90
2018-09-04T12:43:24.560Z,42.90
2018-09-04T12:45:56.771Z,39.87
2018-09-04T12:48:27.785Z,35.33
2018-09-04T12:50:58.704Z,34.20
2018-09-04T12:53:28.092Z,35.50
2018-09-04T12:55:56.918Z,31.77
2018-09-04T12:58:25.659Z,37.80
2018-09-04T13:00:55.132Z,38.80
2018-09-04T13:03:24.997Z,37.80
2018-09-04T13:05:53.785Z,38.40
2018-09-04T13:08:23.948Z,38.80
2018-09-04T13:10:52.679Z,44.37
2018-09-04T13:13:21.363Z,43.53
2018-09-04T13:16:05.358Z,40.50
2018-09-04T13:18:34.096Z,40.10
2018-09-04T13:21:04.756Z,38.10
2018-09-04T13:23:34.765Z,37.40
2018-09-04T13:26:03.996Z,35.87
2018-09-04T13:28:33.490Z,31.97
2018-09-04T13:31:02.265Z,30.63
2018-09-04T13:33:30.952Z,31.23
2018-09-04T13:35:59.685Z,29.83
2018-09-04T13:38:28.409Z,29.33
2018-09-04T13:41:02.455Z,30.37
2018-09-04T13:43:31.145Z,30.00
2018-09-04T13:45:59.802Z,28.47
2018-09-04T13:48:28.918Z,29.13
2018-09-04T13:50:57.963Z,29.73
2018-09-04T13:53:27.459Z,28.97
2018-09-04T13:55:56.628Z,30.37
2018-09-04T13:58:25.581Z,28.57
2018-09-04T14:00:54.310Z,29.17
2018-09-04T14:03:23.109Z,28.50
2018-09-04T14:05:51.797Z,27.97
2018-09-04T14:08:20.542Z,30.97
2018-09-04T14:10:49.264Z,26.40
2018-09-04T14:13:17.912Z,27.83
2018-09-04T14:15:46.638Z,31.77
2018-09-04T14:18:15.295Z,33.03
2018-09-04T14:20:44.012Z,29.07
2018-09-04T14:23:12.664Z,33.13
2018-09-04T14:25:41.308Z,29.27
2018-09-04T14:28:10.045Z,31.00
2018-09-04T14:30:39.072Z,31.57
2018-09-04T14:33:07.700Z,31.23
2018-09-04T14:35:40.227Z,38.83
2018-09-04T14:38:09.013Z,38.47
2018-09-04T14:40:42.419Z,36.60
2018-09-04T14:43:11.123Z,36.33
2018-09-04T14:45:40.304Z,37.17
2018-09-04T14:48:09.099Z,39.57
2018-09-04T14:50:37.944Z,40.67
2018-09-04T14:53:06.953Z,38.43
2018-09-04T14:55:35.766Z,37.53
2018-09-04T14:58:04.966Z,34.37
2018-09-04T15:00:33.828Z,37.97
2018-09-04T15:03:02.513Z,38.47
2018-09-04T15:05:31.263Z,39.30
2018-09-04T15:07:59.975Z,40.57
2018-09-04T15:10:28.646Z,38.83
2018-09-04T15:12:57.349Z,38.40
2018-09-04T15:15:25.996Z,40.93
2018-09-04T15:17:54.657Z,38.37
2018-09-04T15:20:23.341Z,37.37
2018-09-04T15:22:52.103Z,36.60
2018-09-04T15:25:20.795Z,36.03
2018-09-04T15:27:49.515Z,33.03
2018-09-04T15:30:18.250Z,31.73
2018-09-04T15:32:47.277Z,25.03
2018-09-04T15:35:15.944Z,24.87
2018-09-04T15:37:44.643Z,22.37
2018-09-04T15:40:13.298Z,22.33
2018-09-04T15:42:42.001Z,24.20
2018-09-04T15:45:10.664Z,22.47
2018-09-04T15:47:39.451Z,22.43
2018-09-04T15:50:08.128Z,24.00
2018-09-04T15:52:36.761Z,22.20
2018-09-04T15:55:05.452Z,22.30
2018-09-04T15:57:34.159Z,22.27
2018-09-04T16:00:03.642Z,23.23
2018-09-04T16:02:32.278Z,20.70
2018-09-04T16:05:00.881Z,23.17
2018-09-04T16:07:29.531Z,24.33
2018-09-04T16:09:58.212Z,24.60
2018-09-04T16:12:26.917Z,28.63
2018-09-04T16:14:55.593Z,27.47
2018-09-04T16:17:24.404Z,28.43
2018-09-04T16:19:53.092Z,26.70
2018-09-04T16:22:21.753Z,26.70
2018-09-04T16:24:50.427Z,29.70
2018-09-04T16:27:19.136Z,30.47
2018-09-04T16:29:47.771Z,30.30
2018-09-04T16:32:16.405Z,28.03
2018-09-04T16:34:45.073Z,28.27
2018-09-04T16:37:13.650Z,30.33
2018-09-04T16:39:42.913Z,34.40
2018-09-04T16:42:11.561Z,32.17
2018-09-04T16:44:40.293Z,31.63
2018-09-04T16:47:08.955Z,34.30
2018-09-04T16:49:37.613Z,30.03
2018-09-04T16:52:06.530Z,31.20
2018-09-04T16:54:35.233Z,31.57
2018-09-04T16:57:04.001Z,29.00
2018-09-04T17:00:39.275Z,32.03
2018-09-04T17:03:07.876Z,31.70
2018-09-04T17:05:36.539Z,33.87
2018-09-04T17:08:05.420Z,29.97
2018-09-04T17:10:34.907Z,33.23
2018-09-04T17:13:03.658Z,36.37
2018-09-04T17:15:32.300Z,31.63
2018-09-04T17:18:00.886Z,35.27
2018-09-04T17:20:29.510Z,31.80
2018-09-04T17:22:58.115Z,34.13
2018-09-04T17:25:26.742Z,33.27
2018-09-04T17:27:55.420Z,32.93
2018-09-04T17:30:24.126Z,31.67
2018-09-04T17:32:53.333Z,32.33
2018-09-04T17:35:22.477Z,34.10
2018-09-04T17:37:51.075Z,31.57
2018-09-04T17:40:19.945Z,30.70
2018-09-04T17:42:49.210Z,37.33
2018-09-04T17:45:18.066Z,37.03
2018-09-04T17:47:46.794Z,38.83
2018-09-04T17:50:15.465Z,39.23
2018-09-04T17:52:44.146Z,41.40
2018-09-04T17:55:12.835Z,34.03
2018-09-04T17:57:41.475Z,36.37
2018-09-04T18:00:10.175Z,37.10
2018-09-04T18:02:38.827Z,38.37
2018-09-04T18:05:07.573Z,36.63
2018-09-04T18:07:36.322Z,34.13
2018-09-04T18:10:05.201Z,33.53
2018-09-04T18:12:33.928Z,35.50
2018-09-04T18:15:03.395Z,33.23
2018-09-04T18:17:32.092Z,37.93
2018-09-04T18:20:00.908Z,34.43
2018-09-04T18:22:29.561Z,33.57
2018-09-04T18:24:58.349Z,37.80
2018-09-04T18:27:27.038Z,37.07
2018-09-04T18:29:55.707Z,31.77
2018-09-04T18:32:24.340Z,35.47
2018-09-04T18:34:53.005Z,32.93
2018-09-04T18:37:21.665Z,33.10
2018-09-04T18:39:50.363Z,29.97
2018-09-04T18:42:19.054Z,28.00
2018-09-04T18:44:47.762Z,34.00
2018-09-04T18:47:16.491Z,30.17
2018-09-04T18:49:45.273Z,31.63
2018-09-04T18:52:13.901Z,28.90
2018-09-04T18:54:42.642Z,31.07
2018-09-04T18:57:11.378Z,36.27
2018-09-04T18:59:39.961Z,32.87
2018-09-04T19:02:08.678Z,33.33
2018-09-04T19:04:37.326Z,40.40
2018-09-04T19:07:06.047Z,46.50
2018-09-04T19:09:34.799Z,50.53
2018-09-04T19:12:04.493Z,50.40
2018-09-04T19:14:33.289Z,47.47
2018-09-04T19:17:02.037Z,47.67
2018-09-04T19:19:30.863Z,44.57
2018-09-04T19:21:59.595Z,49.27
2018-09-04T19:24:28.329Z,46.47
2018-09-04T19:26:57.050Z,48.27
2018-09-04T19:29:25.886Z,53.13
2018-09-04T19:31:54.598Z,48.60
2018-09-04T19:34:23.265Z,46.50
2018-09-04T19:36:51.983Z,47.80
2018-09-04T19:39:20.754Z,48.43
2018-09-04T19:41:49.401Z,50.53
2018-09-04T19:44:18.076Z,50.50
2018-09-04T19:46:46.842Z,47.17
2018-09-04T19:49:15.608Z,49.17
2018-09-04T19:51:44.280Z,52.73
2018-09-04T19:54:13.017Z,59.80
2018-09-04T19:56:41.802Z,50.67
2018-09-04T19:59:10.572Z,52.53
2018-09-04T20:01:39.560Z,54.53
2018-09-04T20:04:08.367Z,57.70
2018-09-04T20:06:37.171Z,56.27
2018-09-04T20:09:06.593Z,57.40
2018-09-04T20:11:35.324Z,57.83
2018-09-04T20:14:04.091Z,55.47
2018-09-04T20:16:32.773Z,54.40
2018-09-04T20:19:02.133Z,54.73
2018-09-04T20:21:30.907Z,56.77
2018-09-04T20:23:59.644Z,53.70
2018-09-04T20:26:28.400Z,54.63
2018-09-04T20:28:57.322Z,53.83
2018-09-04T20:31:26.028Z,56.33
2018-09-04T20:33:54.703Z,52.33
2018-09-04T20:36:23.319Z,53.47
2018-09-04T20:38:51.968Z,48.70
2018-09-04T20:41:20.634Z,53.93
2018-09-04T20:43:49.279Z,48.33
2018-09-04T20:46:19.668Z,52.50
2018-09-04T20:48:48.345Z,52.47
2018-09-04T20:51:17.036Z,52.47
2018-09-04T20:53:45.810Z,53.43
2018-09-04T20:56:16.402Z,51.20
2018-09-04T20:58:56.580Z,47.73
2018-09-04T21:01:36.529Z,51.30
2018-09-04T21:04:16.491Z,54.07
2018-09-04T21:06:51.478Z,51.10
2018-09-04T21:10:08.514Z,51.73
2018-09-04T21:12:37.207Z,51.70
2018-09-04T21:15:06.255Z,50.43
2018-09-04T21:17:35.253Z,48.63
2018-09-04T21:20:04.263Z,50.87
2018-09-04T21:22:33.050Z,48.57
2018-09-04T21:25:01.721Z,46.43
2018-09-04T21:27:30.606Z,46.83
2018-09-04T21:29:59.334Z,49.47
2018-09-04T21:32:28.060Z,51.47
2018-09-04T21:34:56.858Z,43.63
2018-09-04T21:37:25.598Z,45.50
2018-09-04T21:39:54.459Z,46.93
2018-09-04T21:42:23.296Z,41.93
2018-09-04T21:44:52.052Z,44.80
2018-09-04T21:47:20.813Z,48.73
2018-09-04T21:49:49.459Z,47.10
2018-09-04T21:52:18.217Z,47.87
2018-09-04T21:54:46.953Z,46.50
2018-09-04T21:57:15.557Z,50.07
2018-09-04T21:59:44.663Z,51.13
2018-09-04T22:02:13.372Z,56.27
2018-09-04T22:04:42.495Z,48.53
2018-09-04T22:07:11.167Z,45.97
2018-09-04T22:09:39.831Z,58.23
2018-09-04T22:12:10.492Z,52.10
2018-09-04T22:14:39.239Z,55.03
2018-09-04T22:17:07.893Z,58.57
2018-09-04T22:19:36.615Z,57.23
2018-09-04T22:22:05.376Z,53.07
2018-09-04T22:24:35.742Z,56.73
2018-09-04T22:27:08.688Z,61.03
2018-09-04T22:29:40.226Z,63.37
2018-09-04T22:32:09.019Z,59.23
2018-09-04T22:34:37.690Z,63.67
2018-09-04T22:37:06.420Z,62.50
2018-09-04T22:39:35.125Z,57.07
2018-09-04T22:42:03.834Z,61.07
2018-09-04T22:44:32.580Z,56.70
2018-09-04T22:47:01.302Z,61.67
2018-09-04T22:49:29.874Z,64.17
2018-09-04T22:52:01.462Z,58.07
2018-09-04T22:54:30.218Z,60.70
2018-09-04T22:56:58.889Z,64.73
2018-09-04T22:59:28.083Z,61.83
2018-09-04T23:01:56.808Z,56.90
2018-09-04T23:04:25.629Z,62.10
2018-09-04T23:06:54.345Z,61.13
2018-09-04T23:09:23.069Z,55.47
2018-09-04T23:11:51.799Z,56.10
2018-09-04T23:14:20.645Z,58.10
2018-09-04T23:16:49.398Z,57.10
2018-09-04T23:19:18.149Z,58.00
2018-09-04T23:21:46.844Z,61.20
2018-09-04T23:24:15.510Z,57.67
2018-09-04T23:26:44.244Z,53.77
2018-09-04T23:29:12.848Z,57.80
2018-09-04T23:31:41.480Z,57.50
2018-09-04T23:34:10.218Z,56.17
2018-09-04T23:36:38.956Z,62.63
2018-09-04T23:39:07.852Z,68.93
2018-09-04T23:41:37.064Z,62.77
2018-09-04T23:44:05.713Z,65.67
2018-09-04T23:46:34.431Z,64.97
2018-09-04T23:49:03.173Z,64.73
2018-09-04T23:51:31.895Z,61.77
2018-09-04T23:54:00.578Z,62.13
2018-09-04T23:56:29.323Z,61.40
2018-09-04T23:58:58.047Z,57.60
